sensor_id;sensor_type;location;lat;lon;timestamp;temperature;humidity
23100;DHT22;53791;50.696;4.396;2023-06-04T00:01:31;15.90;99.90
23100;DHT22;53791;50.696;4.396;2023-06-04T00:03:58;15.90;99.90
23100;DHT22;53791;50.696;4.396;2023-06-04T00:06:26;15.80;99.90
23100;DHT22;53791;50.696;4.396;2023-06-04T00:08:55;15.80;99.90
23100;DHT22;53791;50.696;4.396;2023-06-04T00:11:22;15.70;99.90
23100;DHT22;53791;50.696;4.396;2023-06-04T00:13:50;15.70;99.90
23100;DHT22;53791;50.696;4.396;2023-06-04T00:16:18;15.70;99.90
23100;DHT22;53791;50.696;4.396;2023-06-04T00:18:45;15.90;99.90
23100;DHT22;53791;50.696;4.396;2023-06-04T00:21:13;15.90;99.90
23100;DHT22;53791;50.696;4.396;2023-06-04T00:23:40;15.80;99.90
23100;DHT22;53791;50.696;4.396;2023-06-04T00:26:08;15.80;99.90
23100;DHT22;53791;50.696;4.396;2023-06-04T00:28:35;15.80;99.90
23100;DHT22;53791;50.696;4.396;2023-06-04T00:31:05;15.80;99.90
23100;DHT22;53791;50.696;4.396;2023-06-04T00:33:33;15.70;99.90
23100;DHT22;53791;50.696;4.396;2023-06-04T00:36:02;15.70;99.90
23100;DHT22;53791;50.696;4.396;2023-06-04T00:38:29;15.50;99.90
23100;DHT22;53791;50.696;4.396;2023-06-04T00:40:57;15.50;99.90
23100;DHT22;53791;50.696;4.396;2023-06-04T00:43:24;15.50;99.90
23100;DHT22;53791;50.696;4.396;2023-06-04T00:45:56;15.50;99.90
23100;DHT22;53791;50.696;4.396;2023-06-04T00:48:25;15.60;99.90
23100;DHT22;53791;50.696;4.396;2023-06-04T00:50:53;15.50;99.90
23100;DHT22;53791;50.696;4.396;2023-06-04T00:53:24;15.50;99.90
23100;DHT22;53791;50.696;4.396;2023-06-04T00:55:52;15.50;99.90
23100;DHT22;53791;50.696;4.396;2023-06-04T00:58:22;15.50;99.90
23100;DHT22;53791;50.696;4.396;2023-06-04T01:00:52;15.40;99.90
23100;DHT22;53791;50.696;4.396;2023-06-04T01:03:22;15.40;99.90
23100;DHT22;53791;50.696;4.396;2023-06-04T01:06:00;15.50;99.90
23100;DHT22;53791;50.696;4.396;2023-06-04T01:08:28;15.40;99.90
23100;DHT22;53791;50.696;4.396;2023-06-04T01:10:59;15.40;99.90
23100;DHT22;53791;50.696;4.396;2023-06-04T01:13:28;15.40;99.90
23100;DHT22;53791;50.696;4.396;2023-06-04T01:15:56;15.40;99.90
23100;DHT22;53791;50.696;4.396;2023-06-04T01:18:27;15.30;99.90
23100;DHT22;53791;50.696;4.396;2023-06-04T01:21:06;15.30;99.90
23100;DHT22;53791;50.696;4.396;2023-06-04T01:23:54;15.30;99.90
23100;DHT22;53791;50.696;4.396;2023-06-04T01:26:25;15.30;99.90
23100;DHT22;53791;50.696;4.396;2023-06-04T01:28:53;15.30;99.90
23100;DHT22;53791;50.696;4.396;2023-06-04T01:31:24;15.20;99.90
23100;DHT22;53791;50.696;4.396;2023-06-04T01:33:54;15.30;99.90
23100;DHT22;53791;50.696;4.396;2023-06-04T01:36:30;15.30;99.90
23100;DHT22;53791;50.696;4.396;2023-06-04T01:38:57;15.30;99.90
23100;DHT22;53791;50.696;4.396;2023-06-04T01:41:26;15.30;99.90
23100;DHT22;53791;50.696;4.396;2023-06-04T01:43:53;15.30;99.90
23100;DHT22;53791;50.696;4.396;2023-06-04T01:46:21;15.30;99.90
23100;DHT22;53791;50.696;4.396;2023-06-04T01:48:49;15.30;99.90
23100;DHT22;53791;50.696;4.396;2023-06-04T01:51:18;15.30;99.90
23100;DHT22;53791;50.696;4.396;2023-06-04T01:53:47;15.20;99.90
23100;DHT22;53791;50.696;4.396;2023-06-04T01:56:20;15.20;99.90
23100;DHT22;53791;50.696;4.396;2023-06-04T01:58:47;15.20;99.90
23100;DHT22;53791;50.696;4.396;2023-06-04T02:01:19;15.10;99.90
23100;DHT22;53791;50.696;4.396;2023-06-04T02:03:44;15.10;99.90
23100;DHT22;53791;50.696;4.396;2023-06-04T02:06:11;15.10;99.90
23100;DHT22;53791;50.696;4.396;2023-06-04T02:08:41;15.10;99.90
23100;DHT22;53791;50.696;4.396;2023-06-04T02:11:08;15.00;99.90
23100;DHT22;53791;50.696;4.396;2023-06-04T02:13:36;15.00;99.90
23100;DHT22;53791;50.696;4.396;2023-06-04T02:16:04;15.00;99.90
23100;DHT22;53791;50.696;4.396;2023-06-04T02:18:31;14.90;99.90
23100;DHT22;53791;50.696;4.396;2023-06-04T02:20:59;15.00;99.90
23100;DHT22;53791;50.696;4.396;2023-06-04T02:23:26;15.00;99.90
23100;DHT22;53791;50.696;4.396;2023-06-04T02:25:54;14.90;99.90
23100;DHT22;53791;50.696;4.396;2023-06-04T02:28:21;14.80;99.90
23100;DHT22;53791;50.696;4.396;2023-06-04T02:30:49;14.70;99.90
23100;DHT22;53791;50.696;4.396;2023-06-04T02:33:17;14.70;99.90
23100;DHT22;53791;50.696;4.396;2023-06-04T02:35:45;14.60;99.90
23100;DHT22;53791;50.696;4.396;2023-06-04T02:38:12;14.60;99.90
23100;DHT22;53791;50.696;4.396;2023-06-04T02:40:41;14.60;99.90
23100;DHT22;53791;50.696;4.396;2023-06-04T02:43:09;14.40;99.90
23100;DHT22;53791;50.696;4.396;2023-06-04T02:45:36;14.40;99.90
23100;DHT22;53791;50.696;4.396;2023-06-04T02:48:04;14.30;99.90
23100;DHT22;53791;50.696;4.396;2023-06-04T02:50:32;14.20;99.90
23100;DHT22;53791;50.696;4.396;2023-06-04T02:53:01;14.30;99.90
23100;DHT22;53791;50.696;4.396;2023-06-04T02:55:28;14.30;99.90
23100;DHT22;53791;50.696;4.396;2023-06-04T02:57:58;14.20;99.90
23100;DHT22;53791;50.696;4.396;2023-06-04T03:00:28;14.00;99.90
23100;DHT22;53791;50.696;4.396;2023-06-04T03:06:05;14.00;99.90
23100;DHT22;53791;50.696;4.396;2023-06-04T03:11:52;13.90;99.90
23100;DHT22;53791;50.696;4.396;2023-06-04T03:14:24;13.90;99.90
23100;DHT22;53791;50.696;4.396;2023-06-04T03:16:52;13.80;99.90
23100;DHT22;53791;50.696;4.396;2023-06-04T03:19:19;13.70;99.90
23100;DHT22;53791;50.696;4.396;2023-06-04T03:21:47;13.70;99.90
23100;DHT22;53791;50.696;4.396;2023-06-04T03:24:16;13.60;99.90
23100;DHT22;53791;50.696;4.396;2023-06-04T03:26:43;13.50;99.90
23100;DHT22;53791;50.696;4.396;2023-06-04T03:29:11;13.50;99.90
23100;DHT22;53791;50.696;4.396;2023-06-04T03:31:50;13.40;99.90
23100;DHT22;53791;50.696;4.396;2023-06-04T03:34:21;13.40;99.90
23100;DHT22;53791;50.696;4.396;2023-06-04T03:36:51;13.40;99.90
23100;DHT22;53791;50.696;4.396;2023-06-04T03:39:27;13.40;99.90
23100;DHT22;53791;50.696;4.396;2023-06-04T03:41:51;13.30;99.90
23100;DHT22;53791;50.696;4.396;2023-06-04T03:44:21;13.30;99.90
23100;DHT22;53791;50.696;4.396;2023-06-04T03:46:50;13.10;99.90
23100;DHT22;53791;50.696;4.396;2023-06-04T03:49:24;13.10;99.90
23100;DHT22;53791;50.696;4.396;2023-06-04T03:51:50;12.90;99.90
23100;DHT22;53791;50.696;4.396;2023-06-04T03:54:18;12.70;99.90
23100;DHT22;53791;50.696;4.396;2023-06-04T03:56:52;12.80;99.90
23100;DHT22;53791;50.696;4.396;2023-06-04T03:59:17;13.00;99.90
23100;DHT22;53791;50.696;4.396;2023-06-04T04:01:47;13.00;99.90
23100;DHT22;53791;50.696;4.396;2023-06-04T04:04:14;12.90;99.90
23100;DHT22;53791;50.696;4.396;2023-06-04T04:06:42;13.00;99.90
23100;DHT22;53791;50.696;4.396;2023-06-04T04:09:11;13.00;99.90
23100;DHT22;53791;50.696;4.396;2023-06-04T04:11:38;12.90;99.90
23100;DHT22;53791;50.696;4.396;2023-06-04T04:14:06;12.80;99.90
23100;DHT22;53791;50.696;4.396;2023-06-04T04:16:33;12.70;99.90
23100;DHT22;53791;50.696;4.396;2023-06-04T04:19:08;12.60;99.90
23100;DHT22;53791;50.696;4.396;2023-06-04T04:21:38;12.60;99.90
23100;DHT22;53791;50.696;4.396;2023-06-04T04:24:05;12.60;99.90
23100;DHT22;53791;50.696;4.396;2023-06-04T04:26:38;12.60;99.90
23100;DHT22;53791;50.696;4.396;2023-06-04T04:29:02;12.60;99.90
23100;DHT22;53791;50.696;4.396;2023-06-04T04:31:30;12.60;99.90
23100;DHT22;53791;50.696;4.396;2023-06-04T04:34:03;12.50;99.90
23100;DHT22;53791;50.696;4.396;2023-06-04T04:36:35;12.50;99.90
23100;DHT22;53791;50.696;4.396;2023-06-04T04:39:06;12.50;99.90
23100;DHT22;53791;50.696;4.396;2023-06-04T04:41:34;12.50;99.90
23100;DHT22;53791;50.696;4.396;2023-06-04T04:44:15;12.50;99.90
23100;DHT22;53791;50.696;4.396;2023-06-04T04:47:00;12.50;99.90
23100;DHT22;53791;50.696;4.396;2023-06-04T04:49:29;12.40;99.90
23100;DHT22;53791;50.696;4.396;2023-06-04T04:54:32;12.30;99.90
23100;DHT22;53791;50.696;4.396;2023-06-04T04:57:06;12.30;99.90
23100;DHT22;53791;50.696;4.396;2023-06-04T04:59:30;12.30;99.90
23100;DHT22;53791;50.696;4.396;2023-06-04T05:05:06;12.40;99.90
23100;DHT22;53791;50.696;4.396;2023-06-04T05:07:24;12.70;99.90
23100;DHT22;53791;50.696;4.396;2023-06-04T05:09:52;12.70;99.90
23100;DHT22;53791;50.696;4.396;2023-06-04T05:12:19;12.70;99.90
23100;DHT22;53791;50.696;4.396;2023-06-04T05:14:50;12.80;99.90
23100;DHT22;53791;50.696;4.396;2023-06-04T05:17:17;12.90;99.90
23100;DHT22;53791;50.696;4.396;2023-06-04T05:19:46;13.00;99.90
23100;DHT22;53791;50.696;4.396;2023-06-04T05:22:14;13.10;99.90
23100;DHT22;53791;50.696;4.396;2023-06-04T05:24:47;13.10;99.90
23100;DHT22;53791;50.696;4.396;2023-06-04T05:27:12;12.90;99.90
23100;DHT22;53791;50.696;4.396;2023-06-04T05:29:41;13.00;99.90
23100;DHT22;53791;50.696;4.396;2023-06-04T05:32:09;13.10;99.90
23100;DHT22;53791;50.696;4.396;2023-06-04T05:34:38;13.20;99.90
23100;DHT22;53791;50.696;4.396;2023-06-04T05:37:06;13.30;99.90
23100;DHT22;53791;50.696;4.396;2023-06-04T05:39:37;13.40;99.90
23100;DHT22;53791;50.696;4.396;2023-06-04T05:42:13;13.50;99.90
23100;DHT22;53791;50.696;4.396;2023-06-04T05:44:40;13.80;99.90
23100;DHT22;53791;50.696;4.396;2023-06-04T05:47:08;13.90;99.90
23100;DHT22;53791;50.696;4.396;2023-06-04T05:49:39;14.00;99.90
23100;DHT22;53791;50.696;4.396;2023-06-04T05:52:19;14.20;99.90
23100;DHT22;53791;50.696;4.396;2023-06-04T05:54:37;14.30;99.90
23100;DHT22;53791;50.696;4.396;2023-06-04T05:57:31;14.60;99.90
23100;DHT22;53791;50.696;4.396;2023-06-04T06:00:03;14.80;99.90
23100;DHT22;53791;50.696;4.396;2023-06-04T06:02:31;15.00;99.90
23100;DHT22;53791;50.696;4.396;2023-06-04T06:05:00;15.10;99.90
23100;DHT22;53791;50.696;4.396;2023-06-04T06:07:35;15.30;99.90
23100;DHT22;53791;50.696;4.396;2023-06-04T06:10:03;15.20;99.90
23100;DHT22;53791;50.696;4.396;2023-06-04T06:12:32;15.30;99.90
23100;DHT22;53791;50.696;4.396;2023-06-04T06:15:03;15.30;99.90
23100;DHT22;53791;50.696;4.396;2023-06-04T06:17:53;15.40;99.90
23100;DHT22;53791;50.696;4.396;2023-06-04T06:20:47;15.50;99.90
23100;DHT22;53791;50.696;4.396;2023-06-04T06:29:08;16.30;99.90
23100;DHT22;53791;50.696;4.396;2023-06-04T06:31:36;16.40;99.90
23100;DHT22;53791;50.696;4.396;2023-06-04T06:34:05;16.60;99.90
23100;DHT22;53791;50.696;4.396;2023-06-04T06:36:36;16.70;99.90
23100;DHT22;53791;50.696;4.396;2023-06-04T06:47:25;17.50;99.90
23100;DHT22;53791;50.696;4.396;2023-06-04T06:49:54;17.70;99.90
23100;DHT22;53791;50.696;4.396;2023-06-04T06:52:21;17.90;99.90
23100;DHT22;53791;50.696;4.396;2023-06-04T06:57:21;17.50;99.90
23100;DHT22;53791;50.696;4.396;2023-06-04T06:59:49;17.50;99.90
23100;DHT22;53791;50.696;4.396;2023-06-04T07:05:29;17.90;99.90
23100;DHT22;53791;50.696;4.396;2023-06-04T07:07:53;17.80;99.90
23100;DHT22;53791;50.696;4.396;2023-06-04T07:10:30;17.80;99.90
23100;DHT22;53791;50.696;4.396;2023-06-04T07:12:57;18.00;99.90
23100;DHT22;53791;50.696;4.396;2023-06-04T07:15:25;18.20;99.90
23100;DHT22;53791;50.696;4.396;2023-06-04T07:17:54;18.40;99.90
23100;DHT22;53791;50.696;4.396;2023-06-04T07:20:29;18.60;99.90
23100;DHT22;53791;50.696;4.396;2023-06-04T07:25:42;19.20;99.90
23100;DHT22;53791;50.696;4.396;2023-06-04T07:28:10;19.30;99.90
23100;DHT22;53791;50.696;4.396;2023-06-04T07:30:47;19.50;99.90
23100;DHT22;53791;50.696;4.396;2023-06-04T07:33:13;19.70;99.90
23100;DHT22;53791;50.696;4.396;2023-06-04T07:35:40;19.80;99.90
23100;DHT22;53791;50.696;4.396;2023-06-04T07:38:08;20.00;99.90
23100;DHT22;53791;50.696;4.396;2023-06-04T07:40:39;20.20;99.90
23100;DHT22;53791;50.696;4.396;2023-06-04T07:43:08;20.20;99.90
23100;DHT22;53791;50.696;4.396;2023-06-04T07:45:35;20.00;99.90
23100;DHT22;53791;50.696;4.396;2023-06-04T07:48:03;19.70;99.90
23100;DHT22;53791;50.696;4.396;2023-06-04T07:50:31;19.80;99.90
23100;DHT22;53791;50.696;4.396;2023-06-04T07:52:58;20.00;99.90
23100;DHT22;53791;50.696;4.396;2023-06-04T07:55:26;20.00;99.90
23100;DHT22;53791;50.696;4.396;2023-06-04T07:57:54;20.20;99.90
23100;DHT22;53791;50.696;4.396;2023-06-04T08:00:21;20.40;99.90
23100;DHT22;53791;50.696;4.396;2023-06-04T08:02:49;20.50;99.90
23100;DHT22;53791;50.696;4.396;2023-06-04T08:05:17;20.80;99.90
23100;DHT22;53791;50.696;4.396;2023-06-04T08:07:45;20.90;99.90
23100;DHT22;53791;50.696;4.396;2023-06-04T08:10:14;20.80;99.90
23100;DHT22;53791;50.696;4.396;2023-06-04T08:12:43;21.00;99.90
23100;DHT22;53791;50.696;4.396;2023-06-04T08:15:10;21.10;99.90
23100;DHT22;53791;50.696;4.396;2023-06-04T08:17:38;21.30;99.90
23100;DHT22;53791;50.696;4.396;2023-06-04T08:20:06;21.50;99.90
23100;DHT22;53791;50.696;4.396;2023-06-04T08:22:35;21.60;99.90
23100;DHT22;53791;50.696;4.396;2023-06-04T08:25:03;21.70;99.90
23100;DHT22;53791;50.696;4.396;2023-06-04T08:27:32;21.60;99.90
23100;DHT22;53791;50.696;4.396;2023-06-04T08:30:02;21.60;99.90
23100;DHT22;53791;50.696;4.396;2023-06-04T08:32:29;21.80;99.90
23100;DHT22;53791;50.696;4.396;2023-06-04T08:34:57;21.90;99.90
23100;DHT22;53791;50.696;4.396;2023-06-04T08:37:24;22.10;99.90
23100;DHT22;53791;50.696;4.396;2023-06-04T08:39:53;21.90;99.90
23100;DHT22;53791;50.696;4.396;2023-06-04T08:42:26;21.90;99.90
23100;DHT22;53791;50.696;4.396;2023-06-04T08:44:52;22.10;99.90
23100;DHT22;53791;50.696;4.396;2023-06-04T08:47:20;22.10;99.90
23100;DHT22;53791;50.696;4.396;2023-06-04T08:49:50;22.20;99.90
23100;DHT22;53791;50.696;4.396;2023-06-04T08:52:18;22.20;99.90
23100;DHT22;53791;50.696;4.396;2023-06-04T08:54:52;22.40;99.90
23100;DHT22;53791;50.696;4.396;2023-06-04T08:57:21;22.30;99.90
23100;DHT22;53791;50.696;4.396;2023-06-04T08:59:50;22.50;99.90
23100;DHT22;53791;50.696;4.396;2023-06-04T09:02:18;22.70;99.90
23100;DHT22;53791;50.696;4.396;2023-06-04T09:04:46;22.90;99.90
23100;DHT22;53791;50.696;4.396;2023-06-04T09:07:14;23.10;99.90
23100;DHT22;53791;50.696;4.396;2023-06-04T09:09:45;23.20;99.90
23100;DHT22;53791;50.696;4.396;2023-06-04T09:12:23;23.30;99.90
23100;DHT22;53791;50.696;4.396;2023-06-04T09:14:47;23.40;99.90
23100;DHT22;53791;50.696;4.396;2023-06-04T09:17:22;23.50;99.90
23100;DHT22;53791;50.696;4.396;2023-06-04T09:19:51;23.60;99.90
23100;DHT22;53791;50.696;4.396;2023-06-04T09:22:19;23.70;99.90
23100;DHT22;53791;50.696;4.396;2023-06-04T09:24:47;24.00;99.90
23100;DHT22;53791;50.696;4.396;2023-06-04T09:27:20;24.10;99.90
23100;DHT22;53791;50.696;4.396;2023-06-04T09:29:51;24.10;99.90
23100;DHT22;53791;50.696;4.396;2023-06-04T09:32:23;24.20;99.90
23100;DHT22;53791;50.696;4.396;2023-06-04T09:34:53;24.30;99.90
23100;DHT22;53791;50.696;4.396;2023-06-04T09:37:21;24.30;99.90
23100;DHT22;53791;50.696;4.396;2023-06-04T09:39:55;24.30;99.90
23100;DHT22;53791;50.696;4.396;2023-06-04T09:42:24;24.30;99.90
23100;DHT22;53791;50.696;4.396;2023-06-04T09:44:51;23.70;99.90
23100;DHT22;53791;50.696;4.396;2023-06-04T09:47:19;23.80;99.90
23100;DHT22;53791;50.696;4.396;2023-06-04T09:49:49;23.90;99.90
23100;DHT22;53791;50.696;4.396;2023-06-04T09:52:17;23.80;99.90
23100;DHT22;53791;50.696;4.396;2023-06-04T09:54:46;23.70;99.90
23100;DHT22;53791;50.696;4.396;2023-06-04T09:57:16;24.00;99.90
23100;DHT22;53791;50.696;4.396;2023-06-04T09:59:45;24.30;99.90
23100;DHT22;53791;50.696;4.396;2023-06-04T10:02:13;24.10;99.90
23100;DHT22;53791;50.696;4.396;2023-06-04T10:04:42;23.90;99.90
23100;DHT22;53791;50.696;4.396;2023-06-04T10:07:12;23.60;99.90
23100;DHT22;53791;50.696;4.396;2023-06-04T10:09:43;23.50;99.90
23100;DHT22;53791;50.696;4.396;2023-06-04T10:12:17;23.60;99.90
23100;DHT22;53791;50.696;4.396;2023-06-04T10:14:56;23.70;99.90
23100;DHT22;53791;50.696;4.396;2023-06-04T10:17:22;23.50;99.90
23100;DHT22;53791;50.696;4.396;2023-06-04T10:19:52;23.50;99.90
23100;DHT22;53791;50.696;4.396;2023-06-04T10:22:21;23.60;99.90
23100;DHT22;53791;50.696;4.396;2023-06-04T10:24:49;23.60;99.90
23100;DHT22;53791;50.696;4.396;2023-06-04T10:27:18;24.00;99.90
23100;DHT22;53791;50.696;4.396;2023-06-04T10:29:46;24.10;99.90
23100;DHT22;53791;50.696;4.396;2023-06-04T10:32:15;24.00;99.90
23100;DHT22;53791;50.696;4.396;2023-06-04T10:34:42;24.00;99.90
23100;DHT22;53791;50.696;4.396;2023-06-04T10:37:27;23.60;99.90
23100;DHT22;53791;50.696;4.396;2023-06-04T10:39:55;23.60;99.90
23100;DHT22;53791;50.696;4.396;2023-06-04T10:42:25;23.60;99.90
23100;DHT22;53791;50.696;4.396;2023-06-04T10:45:00;23.60;99.90
23100;DHT22;53791;50.696;4.396;2023-06-04T10:47:28;23.60;99.90
23100;DHT22;53791;50.696;4.396;2023-06-04T10:50:09;23.60;99.90
23100;DHT22;53791;50.696;4.396;2023-06-04T10:55:08;23.60;99.90
23100;DHT22;53791;50.696;4.396;2023-06-04T10:57:36;23.70;99.90
23100;DHT22;53791;50.696;4.396;2023-06-04T11:00:10;23.90;99.90
23100;DHT22;53791;50.696;4.396;2023-06-04T11:02:48;24.20;99.90
23100;DHT22;53791;50.696;4.396;2023-06-04T11:05:14;24.00;99.90
23100;DHT22;53791;50.696;4.396;2023-06-04T11:07:48;23.70;99.90
23100;DHT22;53791;50.696;4.396;2023-06-04T11:10:17;23.40;99.90
23100;DHT22;53791;50.696;4.396;2023-06-04T11:12:53;23.30;99.90
23100;DHT22;53791;50.696;4.396;2023-06-04T11:15:17;23.50;99.90
23100;DHT22;53791;50.696;4.396;2023-06-04T11:17:55;23.80;99.90
23100;DHT22;53791;50.696;4.396;2023-06-04T11:20:27;24.30;99.90
23100;DHT22;53791;50.696;4.396;2023-06-04T11:22:55;24.50;99.90
23100;DHT22;53791;50.696;4.396;2023-06-04T11:25:27;24.60;99.90
23100;DHT22;53791;50.696;4.396;2023-06-04T11:27:55;24.60;99.90
23100;DHT22;53791;50.696;4.396;2023-06-04T11:30:23;24.80;99.90
23100;DHT22;53791;50.696;4.396;2023-06-04T11:33:00;25.10;99.90
23100;DHT22;53791;50.696;4.396;2023-06-04T11:35:28;25.40;99.90
23100;DHT22;53791;50.696;4.396;2023-06-04T11:37:58;25.20;99.90
23100;DHT22;53791;50.696;4.396;2023-06-04T11:40:26;25.40;99.90
23100;DHT22;53791;50.696;4.396;2023-06-04T11:42:54;25.60;99.90
23100;DHT22;53791;50.696;4.396;2023-06-04T11:45:22;25.30;99.90
23100;DHT22;53791;50.696;4.396;2023-06-04T11:47:54;24.60;99.90
23100;DHT22;53791;50.696;4.396;2023-06-04T11:50:28;24.70;99.90
23100;DHT22;53791;50.696;4.396;2023-06-04T11:52:52;24.50;99.90
23100;DHT22;53791;50.696;4.396;2023-06-04T11:55:22;24.50;99.90
23100;DHT22;53791;50.696;4.396;2023-06-04T11:57:56;24.50;99.90
23100;DHT22;53791;50.696;4.396;2023-06-04T12:00:22;24.50;99.90
23100;DHT22;53791;50.696;4.396;2023-06-04T12:02:52;24.70;99.90
23100;DHT22;53791;50.696;4.396;2023-06-04T12:05:20;24.70;99.90
23100;DHT22;53791;50.696;4.396;2023-06-04T12:07:50;24.50;99.90
23100;DHT22;53791;50.696;4.396;2023-06-04T12:10:19;24.50;99.90
23100;DHT22;53791;50.696;4.396;2023-06-04T12:12:46;24.70;99.90
23100;DHT22;53791;50.696;4.396;2023-06-04T12:15:26;24.80;99.90
23100;DHT22;53791;50.696;4.396;2023-06-04T12:17:54;25.10;99.90
23100;DHT22;53791;50.696;4.396;2023-06-04T12:20:40;25.30;99.90
23100;DHT22;53791;50.696;4.396;2023-06-04T12:23:23;25.70;99.90
23100;DHT22;53791;50.696;4.396;2023-06-04T12:25:51;26.00;99.90
23100;DHT22;53791;50.696;4.396;2023-06-04T12:28:18;26.20;99.90
23100;DHT22;53791;50.696;4.396;2023-06-04T12:30:46;26.20;99.90
23100;DHT22;53791;50.696;4.396;2023-06-04T12:33:15;26.30;99.90
23100;DHT22;53791;50.696;4.396;2023-06-04T12:35:42;26.20;99.90
23100;DHT22;53791;50.696;4.396;2023-06-04T12:38:14;26.40;99.90
23100;DHT22;53791;50.696;4.396;2023-06-04T12:40:45;26.00;99.90
23100;DHT22;53791;50.696;4.396;2023-06-04T12:43:10;25.20;99.90
23100;DHT22;53791;50.696;4.396;2023-06-04T12:45:37;25.20;99.90
23100;DHT22;53791;50.696;4.396;2023-06-04T12:48:08;25.30;99.90
23100;DHT22;53791;50.696;4.396;2023-06-04T12:54:04;25.20;99.90
23100;DHT22;53791;50.696;4.396;2023-06-04T12:56:32;25.50;99.90
23100;DHT22;53791;50.696;4.396;2023-06-04T12:59:00;25.70;99.90
23100;DHT22;53791;50.696;4.396;2023-06-04T13:01:28;25.50;99.90
23100;DHT22;53791;50.696;4.396;2023-06-04T13:03:56;25.40;99.90
23100;DHT22;53791;50.696;4.396;2023-06-04T13:06:23;25.40;99.90
23100;DHT22;53791;50.696;4.396;2023-06-04T13:08:51;25.40;99.90
23100;DHT22;53791;50.696;4.396;2023-06-04T13:11:18;25.40;99.90
23100;DHT22;53791;50.696;4.396;2023-06-04T13:13:46;25.70;99.90
23100;DHT22;53791;50.696;4.396;2023-06-04T13:16:13;26.00;99.90
23100;DHT22;53791;50.696;4.396;2023-06-04T13:18:41;26.20;99.90
23100;DHT22;53791;50.696;4.396;2023-06-04T13:21:09;26.20;99.90
23100;DHT22;53791;50.696;4.396;2023-06-04T13:23:36;26.00;99.90
23100;DHT22;53791;50.696;4.396;2023-06-04T13:26:05;26.10;99.90
23100;DHT22;53791;50.696;4.396;2023-06-04T13:28:33;26.30;99.90
23100;DHT22;53791;50.696;4.396;2023-06-04T13:31:00;26.20;99.90
23100;DHT22;53791;50.696;4.396;2023-06-04T13:33:28;26.20;99.90
23100;DHT22;53791;50.696;4.396;2023-06-04T13:35:55;26.50;99.90
23100;DHT22;53791;50.696;4.396;2023-06-04T13:38:23;26.70;99.90
23100;DHT22;53791;50.696;4.396;2023-06-04T13:40:50;27.10;99.90
23100;DHT22;53791;50.696;4.396;2023-06-04T13:43:18;26.70;99.90
23100;DHT22;53791;50.696;4.396;2023-06-04T13:45:45;26.40;99.90
23100;DHT22;53791;50.696;4.396;2023-06-04T13:48:14;26.10;99.90
23100;DHT22;53791;50.696;4.396;2023-06-04T13:50:42;26.10;99.90
23100;DHT22;53791;50.696;4.396;2023-06-04T13:53:09;26.20;99.90
23100;DHT22;53791;50.696;4.396;2023-06-04T13:55:39;26.30;99.90
23100;DHT22;53791;50.696;4.396;2023-06-04T13:58:06;26.30;99.90
23100;DHT22;53791;50.696;4.396;2023-06-04T14:00:34;26.70;99.90
23100;DHT22;53791;50.696;4.396;2023-06-04T14:03:02;26.50;99.90
23100;DHT22;53791;50.696;4.396;2023-06-04T14:05:30;26.10;99.90
23100;DHT22;53791;50.696;4.396;2023-06-04T14:07:57;26.30;99.90
23100;DHT22;53791;50.696;4.396;2023-06-04T14:10:25;26.40;99.90
23100;DHT22;53791;50.696;4.396;2023-06-04T14:12:52;26.40;99.90
23100;DHT22;53791;50.696;4.396;2023-06-04T14:15:20;26.40;99.90
23100;DHT22;53791;50.696;4.396;2023-06-04T14:17:48;26.60;99.90
23100;DHT22;53791;50.696;4.396;2023-06-04T14:20:15;26.70;99.90
23100;DHT22;53791;50.696;4.396;2023-06-04T14:22:45;26.80;99.90
23100;DHT22;53791;50.696;4.396;2023-06-04T14:25:13;26.70;99.90
23100;DHT22;53791;50.696;4.396;2023-06-04T14:27:40;26.50;99.90
23100;DHT22;53791;50.696;4.396;2023-06-04T14:30:08;26.10;99.90
23100;DHT22;53791;50.696;4.396;2023-06-04T14:32:36;25.70;99.90
23100;DHT22;53791;50.696;4.396;2023-06-04T14:35:05;25.70;99.90
23100;DHT22;53791;50.696;4.396;2023-06-04T14:37:34;25.60;99.90
23100;DHT22;53791;50.696;4.396;2023-06-04T14:40:02;25.10;99.90
23100;DHT22;53791;50.696;4.396;2023-06-04T14:42:29;25.00;99.90
23100;DHT22;53791;50.696;4.396;2023-06-04T14:44:57;25.10;99.90
23100;DHT22;53791;50.696;4.396;2023-06-04T14:47:24;24.90;99.90
23100;DHT22;53791;50.696;4.396;2023-06-04T14:49:52;25.10;99.90
23100;DHT22;53791;50.696;4.396;2023-06-04T14:52:19;25.10;99.90
23100;DHT22;53791;50.696;4.396;2023-06-04T14:54:47;25.20;99.90
23100;DHT22;53791;50.696;4.396;2023-06-04T14:57:14;25.70;99.90
23100;DHT22;53791;50.696;4.396;2023-06-04T14:59:44;25.90;99.90
23100;DHT22;53791;50.696;4.396;2023-06-04T15:02:11;25.40;99.90
23100;DHT22;53791;50.696;4.396;2023-06-04T15:04:39;25.10;99.90
23100;DHT22;53791;50.696;4.396;2023-06-04T15:07:08;25.10;99.90
23100;DHT22;53791;50.696;4.396;2023-06-04T15:09:36;25.10;99.90
23100;DHT22;53791;50.696;4.396;2023-06-04T15:12:03;24.90;99.90
23100;DHT22;53791;50.696;4.396;2023-06-04T15:14:31;25.30;99.90
23100;DHT22;53791;50.696;4.396;2023-06-04T15:16:59;25.40;99.90
23100;DHT22;53791;50.696;4.396;2023-06-04T15:19:26;25.30;99.90
23100;DHT22;53791;50.696;4.396;2023-06-04T15:21:54;25.50;99.90
23100;DHT22;53791;50.696;4.396;2023-06-04T15:24:21;25.70;99.90
23100;DHT22;53791;50.696;4.396;2023-06-04T15:26:51;25.70;99.90
23100;DHT22;53791;50.696;4.396;2023-06-04T15:29:21;25.90;99.90
23100;DHT22;53791;50.696;4.396;2023-06-04T15:31:49;26.00;99.90
23100;DHT22;53791;50.696;4.396;2023-06-04T15:34:16;26.20;99.90
23100;DHT22;53791;50.696;4.396;2023-06-04T15:36:45;26.30;99.90
23100;DHT22;53791;50.696;4.396;2023-06-04T15:39:14;25.80;99.90
23100;DHT22;53791;50.696;4.396;2023-06-04T15:41:42;25.90;99.90
23100;DHT22;53791;50.696;4.396;2023-06-04T15:44:09;25.70;99.90
23100;DHT22;53791;50.696;4.396;2023-06-04T15:46:37;25.80;99.90
23100;DHT22;53791;50.696;4.396;2023-06-04T15:49:07;25.80;99.90
23100;DHT22;53791;50.696;4.396;2023-06-04T15:51:36;25.90;99.90
23100;DHT22;53791;50.696;4.396;2023-06-04T15:54:04;26.00;99.90
23100;DHT22;53791;50.696;4.396;2023-06-04T15:56:31;26.00;99.90
23100;DHT22;53791;50.696;4.396;2023-06-04T15:58:59;25.90;99.90
23100;DHT22;53791;50.696;4.396;2023-06-04T16:01:28;25.80;99.90
23100;DHT22;53791;50.696;4.396;2023-06-04T16:03:55;25.80;99.90
23100;DHT22;53791;50.696;4.396;2023-06-04T16:06:23;25.80;99.90
23100;DHT22;53791;50.696;4.396;2023-06-04T16:08:51;25.70;99.90
23100;DHT22;53791;50.696;4.396;2023-06-04T16:11:31;25.50;99.90
23100;DHT22;53791;50.696;4.396;2023-06-04T16:13:52;25.30;99.90
23100;DHT22;53791;50.696;4.396;2023-06-04T16:16:22;25.40;99.90
23100;DHT22;53791;50.696;4.396;2023-06-04T16:18:52;25.20;99.90
23100;DHT22;53791;50.696;4.396;2023-06-04T16:21:24;25.20;99.90
23100;DHT22;53791;50.696;4.396;2023-06-04T16:23:48;25.10;99.90